Time;durP1;ratioP1;P1;durP2;ratioP2;P2;SDS_P1;SDS_P2;PMS_P1;PMS_P2;Temp;Humidity;BMP_temperature;BMP_pressure;BME280_temperature;BME280_humidity;BME280_pressure;Samples;Min_cycle;Max_cycle;Signal;HPM_P1;HPM_P2
2023/04/23 00:02:13;;;;;;;543.83;55.95;;;5.10;99.90;;;;;;5040178;28;20379;-20
2023/04/23 00:04:51;;;;;;;586.25;66.28;;;5.30;99.90;;;;;;5039933;28;20057;-21
2023/04/23 00:07:19;;;;;;;766.88;73.32;;;5.10;99.90;;;;;;5074085;28;20045;-21
2023/04/23 00:09:45;;;;;;;501.00;55.83;;;5.20;99.90;;;;;;5056610;28;20052;-20
2023/04/23 00:12:11;;;;;;;640.75;68.75;;;5.20;99.90;;;;;;5073891;28;20046;-20
2023/04/23 00:14:37;;;;;;;849.45;76.13;;;5.20;99.90;;;;;;5074164;28;20457;-21
2023/04/23 00:17:03;;;;;;;901.55;76.68;;;5.20;99.90;;;;;;5074490;28;20156;-21
2023/04/23 00:19:28;;;;;;;1004.75;87.10;;;5.30;99.90;;;;;;5073596;28;20044;-21
2023/04/23 00:21:54;;;;;;;655.05;64.93;;;5.30;99.90;;;;;;5055860;28;20055;-21
2023/04/23 00:24:20;;;;;;;572.35;59.58;;;5.30;99.90;;;;;;5073658;28;20047;-21
2023/04/23 00:26:46;;;;;;;1076.40;91.93;;;5.30;99.90;;;;;;5055504;28;20048;-20
2023/04/23 00:29:11;;;;;;;536.00;57.22;;;5.30;99.90;;;;;;5056602;28;20068;-21
2023/04/23 00:31:37;;;;;;;590.88;61.42;;;5.30;99.90;;;;;;5055492;28;20045;-21
2023/04/23 00:34:03;;;;;;;706.20;67.05;;;5.20;99.90;;;;;;5073518;28;20055;-20
2023/04/23 00:36:29;;;;;;;852.28;68.72;;;5.20;99.90;;;;;;5073501;28;20048;-21
2023/04/23 00:38:55;;;;;;;699.78;63.08;;;5.20;99.90;;;;;;5074027;28;20041;-21
2023/04/23 00:41:21;;;;;;;620.00;65.97;;;5.20;99.90;;;;;;5055582;28;20050;-21
2023/04/23 00:43:48;;;;;;;540.17;64.43;;;5.20;99.90;;;;;;5074672;28;20052;-21
2023/04/23 00:46:15;;;;;;;567.63;67.90;;;5.20;99.90;;;;;;5077499;28;20098;-21
2023/04/23 00:48:41;;;;;;;752.58;75.07;;;5.20;99.90;;;;;;5078215;28;20061;-21
2023/04/23 00:51:10;;;;;;;691.85;70.63;;;5.20;99.90;;;;;;5077367;28;20106;-21
2023/04/23 00:53:35;;;;;;;691.85;75.72;;;5.20;99.90;;;;;;5077377;28;20056;-21
2023/04/23 00:56:03;;;;;;;955.38;83.45;;;5.30;99.90;;;;;;5060365;28;20049;-21
2023/04/23 00:58:30;;;;;;;723.83;79.90;;;5.30;99.90;;;;;;5077297;28;20044;-20
2023/04/23 01:00:56;;;;;;;589.60;69.05;;;5.20;99.90;;;;;;5059540;28;20478;-21
2023/04/23 01:03:24;;;;;;;584.75;74.40;;;5.40;99.90;;;;;;5077191;28;20177;-21
2023/04/23 01:05:50;;;;;;;763.90;80.53;;;5.40;99.90;;;;;;5077157;28;20094;-21
2023/04/23 01:08:17;;;;;;;750.15;87.25;;;5.40;99.90;;;;;;5077096;28;20062;-21
2023/04/23 01:10:44;;;;;;;446.83;67.88;;;5.40;99.90;;;;;;5077787;28;20402;-21
2023/04/23 01:13:12;;;;;;;653.42;81.25;;;5.50;99.90;;;;;;5076993;28;20049;-21
2023/04/23 01:15:38;;;;;;;788.85;88.32;;;5.50;99.90;;;;;;5076936;28;20049;-21
2023/04/23 01:18:06;;;;;;;633.58;79.25;;;5.60;99.90;;;;;;5077401;28;20131;-21
2023/04/23 01:20:33;;;;;;;786.58;88.95;;;5.70;99.90;;;;;;5076835;28;20036;-21
2023/04/23 01:22:59;;;;;;;1137.00;104.90;;;5.70;99.90;;;;;;5077069;28;20087;-21
2023/04/23 01:25:25;;;;;;;801.92;95.25;;;5.60;99.90;;;;;;5076746;28;20398;-21
2023/04/23 01:27:51;;;;;;;950.55;101.47;;;5.70;99.90;;;;;;5076711;28;20051;-21
2023/04/23 01:30:17;;;;;;;894.25;101.75;;;5.90;99.90;;;;;;5059254;28;20135;-21
2023/04/23 01:32:43;;;;;;;845.30;98.97;;;5.80;99.90;;;;;;5076607;28;20123;-21
2023/04/23 01:35:09;;;;;;;665.22;85.78;;;5.90;99.90;;;;;;5077045;28;20047;-21
2023/04/23 01:37:37;;;;;;;768.72;87.28;;;6.00;99.90;;;;;;5076557;28;20040;-21
2023/04/23 01:40:03;;;;;;;682.15;88.35;;;6.00;99.90;;;;;;5076509;28;20045;-21
2023/04/23 01:42:28;;;;;;;501.52;75.60;;;6.00;99.90;;;;;;5076396;28;20041;-21
2023/04/23 01:44:54;;;;;;;425.60;72.38;;;6.10;99.90;;;;;;5058510;28;20044;-21
2023/04/23 01:47:20;;;;;;;263.88;58.58;;;6.10;99.90;;;;;;5076606;28;20040;-21
2023/04/23 01:49:46;;;;;;;271.10;59.95;;;6.00;99.90;;;;;;5076125;28;20045;-21
2023/04/23 01:52:12;;;;;;;244.05;59.63;;;6.10;99.90;;;;;;5076144;28;20489;-21
2023/04/23 01:54:37;;;;;;;232.18;58.13;;;6.10;99.90;;;;;;5057814;28;20044;-21
2023/04/23 01:57:03;;;;;;;240.45;60.25;;;6.00;99.90;;;;;;5057644;28;20197;-21
2023/04/23 01:59:29;;;;;;;224.70;60.58;;;6.00;99.90;;;;;;5076140;28;20049;-21
2023/04/23 02:01:55;;;;;;;235.13;62.78;;;6.00;99.90;;;;;;5076140;28;20048;-21
2023/04/23 02:04:21;;;;;;;213.60;58.58;;;5.90;99.90;;;;;;5076013;28;20048;-21
2023/04/23 02:06:49;;;;;;;228.45;62.08;;;6.00;99.90;;;;;;5076010;28;20056;-21
2023/04/23 02:09:15;;;;;;;227.90;65.30;;;5.80;99.90;;;;;;5076500;28;20079;-21
2023/04/23 02:11:41;;;;;;;261.25;66.93;;;5.70;99.90;;;;;;5075895;28;20037;-21
2023/04/23 02:14:08;;;;;;;301.73;75.63;;;5.80;99.90;;;;;;5075864;28;20063;-21
2023/04/23 02:16:34;;;;;;;267.75;71.53;;;5.70;99.90;;;;;;5075846;28;20044;-21
2023/04/23 02:19:00;;;;;;;268.75;71.55;;;5.70;99.90;;;;;;5058420;28;20453;-21
2023/04/23 02:21:26;;;;;;;314.63;74.68;;;5.50;99.90;;;;;;5076530;28;20082;-21
2023/04/23 02:23:53;;;;;;;250.30;66.38;;;5.50;99.90;;;;;;5075655;28;20052;-21
2023/04/23 02:26:18;;;;;;;289.40;70.95;;;5.50;99.90;;;;;;5075651;28;20044;-21
2023/04/23 02:28:47;;;;;;;328.52;75.50;;;5.30;99.90;;;;;;5075593;28;20078;-22
2023/04/23 02:31:13;;;;;;;345.92;76.60;;;5.40;99.90;;;;;;5057603;28;20181;-21
2023/04/23 02:33:41;;;;;;;352.40;75.70;;;5.20;99.90;;;;;;5075792;28;20075;-21
2023/04/23 02:36:07;;;;;;;295.92;72.22;;;5.10;99.90;;;;;;5075506;28;20143;-21
2023/04/23 02:38:33;;;;;;;289.58;69.50;;;5.10;99.90;;;;;;5057645;28;20044;-21
2023/04/23 02:40:59;;;;;;;319.75;76.13;;;5.10;99.90;;;;;;5075331;28;20052;-21
2023/04/23 02:43:24;;;;;;;332.58;71.93;;;5.00;99.90;;;;;;5057714;28;20055;-21
2023/04/23 02:45:50;;;;;;;382.05;82.45;;;5.00;99.90;;;;;;5075840;28;20390;-21
2023/04/23 02:48:16;;;;;;;356.90;76.70;;;4.90;99.90;;;;;;5074934;28;20053;-21
2023/04/23 02:50:42;;;;;;;334.55;74.45;;;5.00;99.90;;;;;;5075092;28;20048;-21
2023/04/23 02:53:08;;;;;;;347.85;79.72;;;4.90;99.90;;;;;;5075350;28;20063;-21
2023/04/23 02:55:34;;;;;;;400.83;82.05;;;4.90;99.90;;;;;;5075084;28;20455;-21
2023/04/23 02:58:00;;;;;;;398.23;83.78;;;4.90;99.90;;;;;;5075026;28;20055;-21
2023/04/23 03:00:26;;;;;;;413.13;84.18;;;4.80;99.90;;;;;;5057152;28;20049;-21
2023/04/23 03:02:52;;;;;;;391.65;84.45;;;4.90;99.90;;;;;;5075131;28;20433;-21
2023/04/23 03:05:17;;;;;;;397.55;86.38;;;5.00;99.90;;;;;;5074836;28;20044;-21
2023/04/23 03:07:43;;;;;;;421.70;91.45;;;5.20;99.90;;;;;;5074702;28;20088;-21
2023/04/23 03:10:09;;;;;;;472.40;99.03;;;5.40;99.90;;;;;;5056958;28;20044;-21
2023/04/23 03:12:35;;;;;;;475.50;99.68;;;5.60;99.90;;;;;;5056776;28;20045;-21
2023/04/23 03:15:00;;;;;;;418.58;93.50;;;5.60;99.90;;;;;;5074598;28;20045;-21
2023/04/23 03:17:26;;;;;;;635.28;106.95;;;5.80;99.90;;;;;;5074598;28;20040;-21
2023/04/23 03:19:52;;;;;;;830.22;128.15;;;5.80;99.90;;;;;;5056792;28;20134;-22
2023/04/23 03:22:18;;;;;;;799.30;129.07;;;5.90;99.90;;;;;;5056732;28;20131;-21
2023/04/23 03:24:43;;;;;;;1006.60;141.77;;;5.90;99.90;;;;;;5074473;28;20080;-21
2023/04/23 03:27:09;;;;;;;1240.05;148.52;;;6.00;99.90;;;;;;5074435;28;20156;-21
2023/04/23 03:29:35;;;;;;;1104.70;142.38;;;6.20;99.90;;;;;;5057271;28;20047;-21
2023/04/23 03:32:00;;;;;;;1203.95;145.68;;;6.30;99.90;;;;;;5056692;28;20524;-21
2023/04/23 03:34:26;;;;;;;1120.15;145.43;;;6.40;99.90;;;;;;5056409;28;20052;-21
2023/04/23 03:36:52;;;;;;;1331.32;153.82;;;6.40;99.90;;;;;;5074248;28;20040;-22
2023/04/23 03:39:17;;;;;;;1307.32;156.30;;;6.40;99.90;;;;;;5074486;28;20062;-21
2023/04/23 03:41:43;;;;;;;1081.30;140.90;;;6.40;99.90;;;;;;5074703;28;20127;-21
2023/04/23 03:44:09;;;;;;;1412.50;162.38;;;6.40;99.90;;;;;;5074686;28;20044;-22
2023/04/23 03:46:35;;;;;;;1154.22;151.90;;;6.50;99.90;;;;;;5074041;28;20088;-21
2023/04/23 03:49:00;;;;;;;1082.88;142.60;;;6.60;99.90;;;;;;5052550;28;20453;-22
2023/04/23 03:51:27;;;;;;;1105.28;144.38;;;6.50;99.90;;;;;;5054493;28;20091;-22
2023/04/23 03:53:52;;;;;;;962.85;131.00;;;6.50;99.90;;;;;;5053684;28;20491;-22
2023/04/23 03:56:18;;;;;;;1041.45;134.48;;;6.60;99.90;;;;;;5052781;28;20077;-21
2023/04/23 03:58:44;;;;;;;966.90;134.68;;;6.60;99.90;;;;;;5052755;28;20053;-21
2023/04/23 04:01:09;;;;;;;849.08;139.70;;;6.60;99.90;;;;;;5053857;28;20044;-21
2023/04/23 04:03:35;;;;;;;839.72;131.18;;;6.50;99.90;;;;;;5054386;28;20419;-22
2023/04/23 04:06:01;;;;;;;1148.97;146.98;;;6.60;99.90;;;;;;5054025;28;20068;-21
2023/04/23 04:08:28;;;;;;;1030.70;137.23;;;6.60;99.90;;;;;;5053804;28;20049;-22
2023/04/23 04:10:55;;;;;;;991.45;139.23;;;6.60;99.90;;;;;;5053676;28;20487;-21
2023/04/23 04:13:20;;;;;;;924.10;132.70;;;6.70;99.90;;;;;;5036082;28;20106;-21
2023/04/23 04:15:46;;;;;;;798.92;129.15;;;6.70;99.90;;;;;;5053649;28;20131;-21
2023/04/23 04:18:12;;;;;;;767.20;129.65;;;6.80;99.90;;;;;;5051874;28;20044;-21
2023/04/23 04:20:38;;;;;;;754.80;127.47;;;6.70;99.90;;;;;;5053695;28;20045;-22
2023/04/23 04:23:03;;;;;;;773.90;127.03;;;6.90;99.90;;;;;;5052588;28;20048;-21
2023/04/23 04:25:29;;;;;;;734.03;132.80;;;6.80;99.90;;;;;;5053597;28;20132;-21
2023/04/23 04:27:56;;;;;;;656.72;128.60;;;6.80;99.90;;;;;;5052359;28;20048;-21
2023/04/23 04:30:23;;;;;;;730.10;129.18;;;6.80;99.90;;;;;;5053445;28;20055;-21
2023/04/23 04:32:49;;;;;;;643.40;128.88;;;6.90;99.90;;;;;;5053507;28;20478;-22
2023/04/23 04:35:15;;;;;;;663.95;124.18;;;6.90;99.90;;;;;;5053513;28;20095;-21
2023/04/23 04:37:42;;;;;;;594.22;127.45;;;6.90;99.90;;;;;;5053457;28;20095;-21
2023/04/23 04:40:10;;;;;;;657.20;129.40;;;6.90;99.90;;;;;;5052281;28;20053;-22
2023/04/23 04:42:37;;;;;;;681.92;127.13;;;6.90;99.90;;;;;;5054222;28;20049;-21
2023/04/23 04:45:04;;;;;;;644.42;126.68;;;7.00;99.90;;;;;;5052267;28;20056;-21
2023/04/23 04:47:31;;;;;;;647.63;128.48;;;7.00;99.90;;;;;;5052087;28;20380;-22
2023/04/23 04:49:58;;;;;;;597.85;125.00;;;7.10;99.90;;;;;;5052106;28;20057;-21
2023/04/23 04:52:24;;;;;;;554.80;124.53;;;7.00;99.90;;;;;;5053064;28;20057;-21
2023/04/23 04:54:50;;;;;;;562.22;123.28;;;7.10;99.90;;;;;;5053463;28;20049;-22
2023/04/23 04:57:16;;;;;;;556.92;125.05;;;7.00;99.90;;;;;;5053236;28;20049;-21
2023/04/23 04:59:41;;;;;;;572.95;127.28;;;7.00;99.90;;;;;;5053800;28;20101;-21
2023/04/23 05:02:07;;;;;;;651.05;125.35;;;7.10;99.90;;;;;;5052053;28;20490;-21
2023/04/23 05:04:33;;;;;;;559.00;125.13;;;7.00;99.90;;;;;;5052057;28;20088;-21
2023/04/23 05:06:59;;;;;;;539.13;121.95;;;7.10;99.90;;;;;;5053200;28;20048;-21
2023/04/23 05:09:25;;;;;;;542.65;124.20;;;7.10;99.90;;;;;;5053749;28;20059;-22
2023/04/23 05:11:51;;;;;;;657.10;131.93;;;7.20;99.90;;;;;;5051943;28;20056;-21
2023/04/23 05:14:16;;;;;;;667.97;133.48;;;7.20;99.90;;;;;;5053134;28;20399;-22
2023/04/23 05:16:42;;;;;;;596.00;128.75;;;7.30;99.90;;;;;;5052313;28;20041;-21
2023/04/23 05:19:08;;;;;;;510.42;119.85;;;7.20;99.90;;;;;;5053608;28;20094;-21
2023/04/23 05:21:34;;;;;;;590.15;127.55;;;7.30;99.90;;;;;;5052055;28;20049;-21
2023/04/23 05:24:00;;;;;;;564.53;126.25;;;7.40;99.90;;;;;;5051906;28;20072;-21
2023/04/23 05:26:25;;;;;;;507.55;122.03;;;7.40;99.90;;;;;;5053004;28;20157;-21
2023/04/23 05:28:51;;;;;;;503.75;127.28;;;7.50;99.90;;;;;;5053506;28;20071;-22
2023/04/23 05:31:17;;;;;;;476.73;115.60;;;7.50;99.90;;;;;;5056209;28;20044;-21
2023/04/23 05:33:43;;;;;;;480.67;119.55;;;7.50;99.90;;;;;;5055944;28;20132;-21
2023/04/23 05:36:09;;;;;;;492.92;115.90;;;7.50;99.90;;;;;;5056667;28;20119;-21
2023/04/23 05:38:37;;;;;;;448.48;110.70;;;7.60;99.90;;;;;;5056495;28;20050;-22
2023/04/23 05:41:03;;;;;;;418.90;110.07;;;7.70;99.90;;;;;;5056511;28;20098;-21
2023/04/23 05:43:28;;;;;;;400.55;105.55;;;7.70;99.90;;;;;;5056504;28;20056;-22
2023/04/23 05:45:54;;;;;;;343.10;100.80;;;7.80;99.90;;;;;;5056377;28;20551;-22
2023/04/23 05:48:20;;;;;;;354.55;98.50;;;7.70;99.90;;;;;;5054966;28;20106;-22
2023/04/23 05:50:48;;;;;;;362.40;100.88;;;7.60;99.90;;;;;;5056799;28;20174;-21
2023/04/23 05:53:14;;;;;;;315.55;93.95;;;7.70;99.90;;;;;;5056323;28;20057;-21
2023/04/23 05:55:40;;;;;;;346.02;98.90;;;7.70;99.90;;;;;;5055926;28;20506;-21
2023/04/23 05:58:06;;;;;;;323.85;92.90;;;7.70;99.90;;;;;;5055489;28;20044;-21
2023/04/23 06:00:32;;;;;;;329.00;95.43;;;7.80;99.90;;;;;;5056385;28;20124;-22
2023/04/23 06:02:57;;;;;;;339.38;98.13;;;7.90;99.90;;;;;;5055811;28;20482;-21
2023/04/23 06:05:23;;;;;;;334.67;96.25;;;7.90;99.90;;;;;;5056365;28;20086;-22
2023/04/23 06:07:49;;;;;;;320.35;94.32;;;8.00;99.90;;;;;;5055879;28;20471;-21
2023/04/23 06:10:14;;;;;;;324.45;94.50;;;8.10;99.90;;;;;;5055884;28;20482;-22
2023/04/23 06:12:41;;;;;;;309.88;92.93;;;8.10;99.90;;;;;;5055883;28;20045;-21
2023/04/23 06:15:07;;;;;;;270.65;87.22;;;8.10;99.90;;;;;;5055951;28;20071;-21
2023/04/23 06:17:37;;;;;;;292.30;92.15;;;8.10;99.90;;;;;;5055858;28;20479;-21
2023/04/23 06:20:04;;;;;;;273.00;86.97;;;8.30;99.90;;;;;;5055777;28;20045;-21
2023/04/23 06:22:30;;;;;;;285.27;89.65;;;8.40;99.90;;;;;;5054435;28;20049;-21
2023/04/23 06:24:56;;;;;;;262.15;87.47;;;8.50;99.90;;;;;;5055704;28;20114;-21
2023/04/23 06:27:22;;;;;;;244.40;85.50;;;8.70;99.90;;;;;;5055604;28;20076;-21
2023/04/23 06:29:47;;;;;;;259.50;86.18;;;8.80;99.90;;;;;;5056039;28;20049;-22
2023/04/23 06:32:13;;;;;;;234.55;84.00;;;8.90;99.90;;;;;;5055499;28;20052;-22
2023/04/23 06:34:39;;;;;;;226.80;82.70;;;8.90;99.90;;;;;;5054576;28;20494;-21
2023/04/23 06:37:04;;;;;;;215.27;80.20;;;8.90;99.90;;;;;;5055476;28;20494;-21
2023/04/23 06:39:30;;;;;;;211.80;77.18;;;8.80;99.90;;;;;;5054761;28;20092;-21
2023/04/23 06:41:57;;;;;;;179.90;70.55;;;8.80;99.90;;;;;;5055306;28;20041;-21
2023/04/23 06:44:22;;;;;;;192.93;74.63;;;8.70;99.90;;;;;;5055341;28;20079;-21
2023/04/23 06:46:48;;;;;;;191.38;75.18;;;8.60;99.90;;;;;;5055798;28;20045;-21
2023/04/23 06:49:14;;;;;;;188.18;73.68;;;8.80;99.90;;;;;;5068076;28;20375;-21
2023/04/23 06:51:40;;;;;;;180.90;73.40;;;9.00;99.90;;;;;;5074750;28;20456;-21
2023/04/23 06:54:06;;;;;;;190.18;75.53;;;9.20;99.90;;;;;;5075118;28;20119;-21
2023/04/23 06:56:31;;;;;;;172.98;72.57;;;9.40;99.90;;;;;;5075043;28;20407;-21
2023/04/23 06:58:57;;;;;;;162.15;72.75;;;9.50;99.90;;;;;;5075566;28;20044;-21
2023/04/23 07:01:23;;;;;;;164.40;70.28;;;9.70;99.90;;;;;;5057143;28;20090;-21
2023/04/23 07:03:51;;;;;;;151.77;69.65;;;9.90;99.90;;;;;;5074907;28;20044;-22
2023/04/23 07:06:17;;;;;;;141.15;66.88;;;10.10;99.90;;;;;;5074413;28;20092;-22
2023/04/23 07:08:44;;;;;;;126.45;61.75;;;10.30;99.90;;;;;;5074761;28;20502;-21
2023/04/23 07:11:10;;;;;;;108.72;57.95;;;10.50;99.90;;;;;;5074631;28;20048;-22
2023/04/23 07:13:36;;;;;;;100.43;54.33;;;10.70;99.90;;;;;;5057220;28;20389;-21
2023/04/23 07:16:02;;;;;;;97.82;53.65;;;10.80;99.90;;;;;;5056791;28;20044;-22
2023/04/23 07:18:28;;;;;;;78.45;49.55;;;11.00;99.90;;;;;;5056794;28;20498;-22
2023/04/23 07:20:53;;;;;;;79.80;48.55;;;11.30;99.90;;;;;;5075006;28;20059;-22
2023/04/23 07:23:19;;;;;;;70.40;44.70;;;11.50;99.90;;;;;;5056503;28;20508;-21
2023/04/23 07:25:45;;;;;;;68.85;45.38;;;11.30;99.90;;;;;;5074987;28;20557;-21
2023/04/23 07:28:10;;;;;;;68.88;44.08;;;11.40;99.90;;;;;;5074328;28;20398;-21
2023/04/23 07:30:36;;;;;;;66.95;44.75;;;11.30;99.90;;;;;;5074207;28;20129;-21
2023/04/23 07:33:02;;;;;;;65.50;43.78;;;11.40;99.90;;;;;;5074218;28;20059;-21
2023/04/23 07:35:28;;;;;;;66.63;44.80;;;11.20;99.90;;;;;;5056329;28;20048;-21
2023/04/23 07:37:56;;;;;;;69.00;44.25;;;11.00;99.90;;;;;;5074084;28;20052;-21
2023/04/23 07:40:22;;;;;;;62.60;37.58;;;11.10;99.90;;;;;;5074142;28;20220;-21
2023/04/23 07:42:49;;;;;;;69.82;47.33;;;10.90;99.90;;;;;;5074170;28;20179;-21
2023/04/23 07:45:14;;;;;;;69.60;44.15;;;11.10;99.90;;;;;;5074598;28;20055;-21
2023/04/23 07:47:40;;;;;;;61.47;40.65;;;11.10;99.90;;;;;;5074130;28;20135;-22
2023/04/23 07:50:07;;;;;;;63.30;42.13;;;11.10;99.90;;;;;;5074633;28;20135;-21
2023/04/23 07:52:33;;;;;;;62.47;42.72;;;11.20;99.90;;;;;;5055610;28;20110;-21
2023/04/23 07:54:58;;;;;;;66.13;42.58;;;11.50;99.90;;;;;;5039621;28;20045;-21
2023/04/23 07:57:24;;;;;;;57.95;38.80;;;11.50;99.90;;;;;;5039628;28;20048;-21
2023/04/23 07:59:50;;;;;;;53.03;37.85;;;11.40;99.90;;;;;;5073930;28;20044;-21
2023/04/23 08:02:17;;;;;;;61.72;41.58;;;11.50;99.90;;;;;;5073879;28;20490;-21
2023/04/23 08:04:42;;;;;;;63.60;42.75;;;11.80;99.90;;;;;;5073793;28;20053;-21
2023/04/23 08:07:08;;;;;;;55.30;36.17;;;12.00;99.90;;;;;;5055657;28;20052;-21
2023/04/23 08:09:34;;;;;;;51.13;34.55;;;12.10;99.90;;;;;;5073761;28;20051;-21
2023/04/23 08:12:01;;;;;;;52.17;34.35;;;12.00;99.90;;;;;;5073619;28;20040;-21
2023/04/23 08:14:26;;;;;;;51.15;33.47;;;11.90;99.90;;;;;;5056484;28;20050;-21
2023/04/23 08:16:52;;;;;;;47.03;32.67;;;11.80;99.90;;;;;;5073649;28;20135;-21
2023/04/23 08:19:18;;;;;;;50.83;36.03;;;11.80;99.90;;;;;;5073237;28;20040;-21
2023/04/23 08:21:43;;;;;;;50.90;34.97;;;12.00;99.90;;;;;;5073534;28;20133;-21
2023/04/23 08:24:09;;;;;;;46.50;32.72;;;12.20;99.90;;;;;;5074456;28;20084;-21
2023/04/23 08:26:35;;;;;;;47.95;33.03;;;12.20;99.90;;;;;;5055593;28;20086;-21
2023/04/23 08:29:01;;;;;;;45.85;31.20;;;12.40;99.90;;;;;;5074248;28;20052;-21
2023/04/23 08:31:27;;;;;;;40.25;28.67;;;12.40;99.90;;;;;;5055626;28;20045;-21
2023/04/23 08:33:54;;;;;;;48.85;31.35;;;12.50;99.90;;;;;;5073508;28;20052;-21
2023/04/23 08:36:20;;;;;;;44.88;32.03;;;12.50;99.90;;;;;;5055673;28;20094;-21
2023/04/23 08:38:45;;;;;;;44.95;31.05;;;12.60;99.90;;;;;;5073436;28;20048;-21
2023/04/23 08:41:14;;;;;;;42.45;29.08;;;12.80;99.90;;;;;;5073267;28;20044;-21
2023/04/23 08:44:06;;;;;;;40.85;27.63;;;12.80;99.90;;;;;;5073399;28;20048;-21
2023/04/23 08:46:36;;;;;;;40.03;29.30;;;12.80;46.90;;;;;;5073770;28;20051;-21
2023/04/23 08:49:02;;;;;;;40.88;28.27;;;12.90;91.80;;;;;;5073688;28;20409;-21
2023/04/23 08:51:32;;;;;;;40.53;29.33;;;12.90;89.90;;;;;;5073841;28;20063;-21
2023/04/23 08:54:02;;;;;;;32.08;23.23;;;13.10;99.90;;;;;;5073348;28;20090;-21
2023/04/23 08:56:29;;;;;;;31.13;23.58;;;13.00;1.00;;;;;;5073950;28;20054;-21
2023/04/23 08:58:55;;;;;;;34.05;24.15;;;13.10;1.00;;;;;;5073822;28;20055;-21
2023/04/23 09:01:21;;;;;;;33.70;23.63;;;13.40;99.90;;;;;;5073317;28;20094;-21
2023/04/23 09:03:48;;;;;;;31.58;21.77;;;14.00;92.50;;;;;;5073261;28;20045;-21
2023/04/23 09:06:13;;;;;;;32.20;22.48;;;14.50;1.00;;;;;;5076790;28;20135;-22
2023/04/23 09:08:39;;;;;;;30.35;20.40;;;14.90;82.60;;;;;;5060349;28;20470;-21
2023/04/23 09:11:06;;;;;;;28.98;21.48;;;15.20;93.50;;;;;;5059183;28;20390;-21
2023/04/23 09:13:33;;;;;;;28.17;19.55;;;15.40;82.70;;;;;;5077338;28;20120;-21
2023/04/23 09:15:59;;;;;;;25.90;19.00;;;15.80;1.00;;;;;;5077861;28;20391;-22
2023/04/23 09:18:25;;;;;;;24.05;18.77;;;15.70;99.90;;;;;;5059289;28;20041;-22
2023/04/23 09:20:52;;;;;;;26.00;18.50;;;15.90;1.00;;;;;;5077697;28;20482;-22
2023/04/23 09:23:21;;;;;;;27.75;19.42;;;16.10;99.90;;;;;;5077345;28;20127;-21
2023/04/23 09:25:46;;;;;;;28.85;18.95;;;16.20;99.90;;;;;;5077333;28;20067;-22
2023/04/23 09:28:13;;;;;;;23.27;18.02;;;15.70;99.90;;;;;;5076741;28;20044;-22
2023/04/23 09:30:43;;;;;;;23.23;16.42;;;15.70;1.00;;;;;;5076528;28;20049;-22
2023/04/23 09:33:15;;;;;;;19.17;15.38;;;15.70;99.90;;;;;;5077240;28;20414;-22
2023/04/23 09:35:42;;;;;;;20.65;15.00;;;15.40;99.90;;;;;;5058970;28;20094;-22
2023/04/23 09:38:09;;;;;;;22.77;14.00;;;15.10;1.00;;;;;;5077124;28;20048;-22
2023/04/23 09:40:36;;;;;;;18.98;11.98;;;15.60;1.00;;;;;;5076502;28;20048;-22
2023/04/23 09:43:03;;;;;;;17.55;12.82;;;15.60;99.90;;;;;;5059166;28;20169;-22
2023/04/23 09:45:29;;;;;;;21.80;15.10;;;15.40;99.90;;;;;;5076359;28;20508;-22
2023/04/23 09:47:57;;;;;;;19.27;14.13;;;15.40;99.90;;;;;;5076223;28;20131;-21
2023/04/23 09:50:35;;;;;;;18.48;13.13;;;15.70;99.90;;;;;;5059305;28;20376;-22
2023/04/23 09:53:01;;;;;;;20.88;14.18;;;15.90;99.90;;;;;;5077035;28;20123;-22
2023/04/23 09:55:34;;;;;;;20.17;14.77;;;16.20;99.90;;;;;;5058690;28;20056;-22
2023/04/23 09:58:02;;;;;;;20.08;13.88;;;16.10;31.60;;;;;;5076361;28;20482;-22
2023/04/23 10:00:36;;;;;;;19.23;14.63;;;16.10;1.00;;;;;;5076215;28;20524;-22
2023/04/23 10:03:03;;;;;;;21.23;14.93;;;15.80;58.90;;;;;;5077033;28;20120;-22
2023/04/23 10:05:29;;;;;;;18.77;13.10;;;15.60;99.90;;;;;;5076099;28;20094;-22
2023/04/23 10:07:58;;;;;;;21.48;14.65;;;15.50;99.90;;;;;;5058477;28;20147;-22
2023/04/23 10:10:24;;;;;;;15.10;10.02;;;15.50;99.90;;;;;;5058318;28;20064;-22
2023/04/23 10:12:53;;;;;;;18.25;12.48;;;15.90;99.90;;;;;;5076427;28;20043;-22
2023/04/23 10:15:19;;;;;;;14.75;9.90;;;16.30;99.90;;;;;;5076462;28;20063;-22
2023/04/23 10:17:47;;;;;;;16.52;10.57;;;17.00;1.00;;;;;;5057244;28;20051;-22
2023/04/23 10:20:13;;;;;;;15.45;9.15;;;16.70;99.90;;;;;;5058177;28;20137;-23
2023/04/23 10:22:43;;;;;;;10.90;7.50;;;16.60;99.90;;;;;;5075744;28;20047;-22
2023/04/23 10:25:10;;;;;;;14.32;7.10;;;16.40;99.90;;;;;;5076336;28;20051;-23
2023/04/23 10:27:42;;;;;;;11.55;6.65;;;16.30;99.90;;;;;;5057827;28;20127;-22
2023/04/23 10:30:10;;;;;;;14.32;6.35;;;16.50;1.00;;;;;;5075858;28;20052;-22
2023/04/23 10:32:37;;;;;;;8.82;4.68;;;16.40;1.00;;;;;;5075476;28;20098;-22
2023/04/23 10:35:04;;;;;;;16.70;6.07;;;16.00;1.00;;;;;;5075513;28;20055;-23
2023/04/23 10:37:30;;;;;;;14.20;5.72;;;16.00;99.90;;;;;;5057820;28;20501;-22
2023/04/23 10:40:08;;;;;;;12.98;6.38;;;16.20;99.90;;;;;;5075426;28;20044;-22
2023/04/23 10:42:34;;;;;;;12.45;6.78;;;17.30;99.90;;;;;;5075405;28;20047;-23
2023/04/23 10:45:00;;;;;;;10.93;5.82;;;17.80;4.90;;;;;;5075684;28;20432;-23
2023/04/23 10:47:25;;;;;;;12.98;6.72;;;17.30;99.90;;;;;;5075330;28;20045;-23
2023/04/23 10:49:51;;;;;;;12.00;6.63;;;17.30;1.00;;;;;;5075688;28;20092;-23
2023/04/23 10:52:17;;;;;;;11.93;5.63;;;18.00;1.00;;;;;;5057264;28;20052;-23
2023/04/23 10:54:48;;;;;;;12.40;5.80;;;18.40;99.90;;;;;;5075294;28;20052;-23
2023/04/23 10:57:14;;;;;;;10.13;5.18;;;18.80;99.90;;;;;;5040565;28;20121;-23
2023/04/23 10:59:50;;;;;;;9.60;4.88;;;;;;;;;;5074928;28;20044;-22
2023/04/23 11:02:16;;;;;;;8.60;3.90;;;19.40;1.00;;;;;;5057731;28;20051;-22
2023/04/23 11:04:52;;;;;;;6.72;3.70;;;19.50;99.90;;;;;;5074771;28;20045;-22
2023/04/23 11:07:18;;;;;;;12.38;4.15;;;19.50;1.00;;;;;;5074769;28;20049;-23
2023/04/23 11:09:48;;;;;;;8.40;4.07;;;19.90;1.00;;;;;;5074700;28;20040;-23
2023/04/23 11:12:23;;;;;;;10.48;3.78;;;19.40;99.90;;;;;;5056651;28;20049;-24
2023/04/23 11:14:50;;;;;;;9.30;3.50;;;19.60;99.90;;;;;;5057024;28;20127;-24
2023/04/23 11:17:20;;;;;;;12.48;3.83;;;18.80;99.90;;;;;;5056770;28;20434;-24
2023/04/23 11:20:06;;;;;;;7.07;2.80;;;18.70;1.00;;;;;;5074790;28;20051;-24
2023/04/23 11:22:36;;;;;;;11.68;3.45;;;18.80;99.90;;;;;;5074564;28;20056;-24
2023/04/23 11:25:04;;;;;;;11.63;4.47;;;19.40;99.90;;;;;;5074471;28;20496;-25
2023/04/23 11:27:31;;;;;;;9.48;3.10;;;19.40;96.90;;;;;;5055313;28;20151;-24
2023/04/23 11:29:57;;;;;;;8.93;3.20;;;19.30;99.90;;;;;;5071570;28;20048;-22
2023/04/23 11:32:23;;;;;;;9.25;3.72;;;19.30;99.90;;;;;;5071671;28;20498;-22
2023/04/23 11:34:49;;;;;;;9.43;3.22;;;18.60;54.90;;;;;;5045965;28;20060;-22
2023/04/23 11:37:17;;;;;;;6.30;2.17;;;18.20;99.90;;;;;;5054124;28;20052;-23
2023/04/23 11:39:44;;;;;;;5.53;1.63;;;17.90;1.00;;;;;;5020606;28;20060;-22
2023/04/23 11:42:13;;;;;;;7.00;1.85;;;17.40;1.00;;;;;;5054491;28;20041;-22
2023/04/23 11:44:40;;;;;;;5.80;2.10;;;17.20;68.70;;;;;;5062140;28;20047;-22
2023/04/23 11:47:07;;;;;;;7.53;2.20;;;17.40;99.90;;;;;;5074034;28;20049;-22
2023/04/23 11:49:35;;;;;;;8.45;2.22;;;18.20;1.00;;;;;;5056846;28;20062;-22
2023/04/23 11:52:01;;;;;;;7.82;2.15;;;18.90;99.90;;;;;;5073092;28;20048;-22
2023/04/23 11:54:28;;;;;;;5.60;1.92;;;19.00;1.00;;;;;;5072769;28;20524;-24
2023/04/23 11:56:55;;;;;;;5.40;2.25;;;18.80;1.00;;;;;;5056544;28;20535;-23
2023/04/23 11:59:22;;;;;;;8.07;1.90;;;18.70;1.00;;;;;;5074179;28;20398;-23
2023/04/23 12:01:56;;;;;;;5.47;1.80;;;19.10;1.00;;;;;;5047306;28;20441;-22
2023/04/23 12:04:24;;;;;;;6.18;1.40;;;19.20;1.00;;;;;;5054414;28;20166;-22
2023/04/23 12:06:53;;;;;;;6.22;1.52;;;19.30;99.90;;;;;;5073989;28;20048;-22
2023/04/23 12:09:22;;;;;;;8.75;2.08;;;19.60;99.90;;;;;;5073839;28;20060;-23
2023/04/23 12:11:51;;;;;;;6.60;1.55;;;19.70;99.90;;;;;;5072987;28;20033;-22
2023/04/23 12:14:20;;;;;;;7.53;1.58;;;19.70;99.90;;;;;;5074022;28;20371;-23
2023/04/23 12:16:51;;;;;;;8.27;1.98;;;19.80;99.90;;;;;;5071894;28;20119;-22
2023/04/23 12:19:21;;;;;;;5.75;1.05;;;19.80;99.90;;;;;;5056337;28;20063;-23
2023/04/23 12:21:54;;;;;;;4.45;0.95;;;19.50;96.40;;;;;;5072785;28;20040;-23
2023/04/23 12:24:25;;;;;;;5.40;1.50;;;19.30;1.00;;;;;;5073627;28;20049;-23
2023/04/23 12:26:59;;;;;;;5.43;1.13;;;19.00;1.00;;;;;;5072613;28;20076;-22